createdAt,value
2019-06-01T00:01:54.265Z,99.90
2019-06-01T00:04:25.809Z,99.90
2019-06-01T00:06:56.683Z,99.90
2019-06-01T00:09:27.289Z,99.90
2019-06-01T00:11:57.881Z,99.90
2019-06-01T00:14:28.645Z,99.90
2019-06-01T00:16:59.378Z,99.90
2019-06-01T00:19:29.982Z,99.90
2019-06-01T00:22:00.732Z,99.90
2019-06-01T00:24:31.652Z,99.90
2019-06-01T00:27:02.493Z,99.90
2019-06-01T00:29:33.451Z,99.90
2019-06-01T00:32:04.464Z,99.90
2019-06-01T00:34:35.206Z,99.90
2019-06-01T00:37:06.116Z,99.90
2019-06-01T00:39:36.657Z,99.90
2019-06-01T00:42:07.575Z,99.90
2019-06-01T00:44:38.318Z,99.90
2019-06-01T00:47:10.156Z,99.90
2019-06-01T00:49:40.794Z,99.90
2019-06-01T00:52:11.586Z,99.90
2019-06-01T00:54:43.203Z,99.90
2019-06-01T00:57:14.276Z,99.90
2019-06-01T00:59:45.891Z,99.90
2019-06-01T01:02:16.616Z,99.90
2019-06-01T01:04:48.335Z,99.90
2019-06-01T01:07:19.142Z,99.90
2019-06-01T01:09:50.831Z,99.90
2019-06-01T01:12:21.426Z,99.90
2019-06-01T01:14:52.019Z,99.90
2019-06-01T01:17:22.751Z,99.90
2019-06-01T01:19:53.976Z,99.90
2019-06-01T01:22:24.562Z,99.90
2019-06-01T01:24:56.498Z,99.90
2019-06-01T01:27:28.395Z,99.90
2019-06-01T01:29:59.207Z,99.90
2019-06-01T01:32:29.810Z,99.90
2019-06-01T01:35:00.525Z,99.90
2019-06-01T01:37:31.139Z,99.90
2019-06-01T01:40:01.698Z,99.90
2019-06-01T01:42:32.869Z,99.90
2019-06-01T01:45:04.520Z,99.90
2019-06-01T01:47:35.213Z,99.90
2019-06-01T01:50:06.308Z,99.90
2019-06-01T01:52:37.171Z,99.90
2019-06-01T01:55:07.919Z,99.90
2019-06-01T01:57:38.508Z,99.90
2019-06-01T02:00:10.854Z,99.90
2019-06-01T02:02:41.570Z,99.90
2019-06-01T02:05:12.100Z,99.90
2019-06-01T02:07:42.713Z,99.90
2019-06-01T02:10:13.296Z,99.90
2019-06-01T02:12:43.979Z,99.90
2019-06-01T02:15:16.090Z,99.90
2019-06-01T02:17:46.786Z,99.90
2019-06-01T02:20:17.690Z,99.90
2019-06-01T02:22:48.223Z,99.90
2019-06-01T02:25:18.859Z,99.90
2019-06-01T02:27:49.551Z,99.90
2019-06-01T02:30:20.408Z,99.90
2019-06-01T02:32:51.041Z,99.90
2019-06-01T02:35:22.764Z,99.90
2019-06-01T02:37:54.704Z,99.90
2019-06-01T02:40:25.565Z,99.90
2019-06-01T02:42:57.218Z,99.90
2019-06-01T02:45:28.582Z,99.90
2019-06-01T02:47:59.506Z,99.90
2019-06-01T02:50:30.551Z,99.90
2019-06-01T02:53:01.525Z,99.90
2019-06-01T02:55:32.232Z,99.90
2019-06-01T02:58:04.268Z,99.90
2019-06-01T03:00:50.430Z,99.90
2019-06-01T03:03:20.957Z,99.90
2019-06-01T03:05:51.738Z,99.90
2019-06-01T03:08:22.353Z,99.90
2019-06-01T03:10:53.195Z,99.90
2019-06-01T03:13:24.159Z,99.90
2019-06-01T03:15:54.547Z,99.90
2019-06-01T03:18:25.038Z,99.90
2019-06-01T03:20:56.314Z,99.90
2019-06-01T03:23:26.851Z,99.90
2019-06-01T03:25:57.746Z,99.90
2019-06-01T03:28:28.511Z,99.90
2019-06-01T03:31:00.955Z,99.90
2019-06-01T03:33:50.496Z,99.90
2019-06-01T03:36:21.006Z,99.90
2019-06-01T03:38:51.767Z,99.90
2019-06-01T03:41:22.375Z,99.90
2019-06-01T03:43:52.950Z,99.90
2019-06-01T03:46:23.530Z,99.90
2019-06-01T03:48:54.188Z,99.90
2019-06-01T03:51:24.946Z,99.90
2019-06-01T03:53:55.604Z,99.90
2019-06-01T03:56:26.229Z,99.90
2019-06-01T03:58:56.964Z,99.90
2019-06-01T04:01:27.777Z,99.90
2019-06-01T04:03:58.646Z,99.90
2019-06-01T04:06:29.458Z,99.90
2019-06-01T04:09:01.472Z,99.90
2019-06-01T04:11:34.072Z,99.90
2019-06-01T04:14:05.719Z,99.90
2019-06-01T04:16:36.685Z,99.90
2019-06-01T04:19:08.054Z,99.90
2019-06-01T04:21:39.168Z,99.90
2019-06-01T04:24:12.211Z,99.90
2019-06-01T04:26:44.167Z,99.90
2019-06-01T04:29:15.090Z,99.90
2019-06-01T04:31:45.818Z,99.90
2019-06-01T04:34:16.716Z,99.90
2019-06-01T04:36:47.376Z,99.90
2019-06-01T04:39:19.023Z,99.90
2019-06-01T04:41:49.641Z,99.90
2019-06-01T04:44:20.537Z,99.90
2019-06-01T04:46:51.141Z,99.90
2019-06-01T04:49:21.816Z,99.90
2019-06-01T04:51:52.541Z,99.90
2019-06-01T04:54:23.432Z,99.90
2019-06-01T04:56:56.983Z,99.90
2019-06-01T04:59:28.251Z,99.90
2019-06-01T05:01:59.169Z,99.90
2019-06-01T05:04:29.720Z,99.90
2019-06-01T05:07:00.306Z,99.90
2019-06-01T05:09:30.869Z,99.90
2019-06-01T05:12:01.604Z,99.90
2019-06-01T05:14:32.538Z,99.90
2019-06-01T05:17:03.280Z,99.90
2019-06-01T05:19:33.902Z,99.90
2019-06-01T05:22:04.503Z,99.90
2019-06-01T05:24:35.073Z,99.90
2019-06-01T05:27:06.891Z,99.90
2019-06-01T05:29:37.593Z,99.90
2019-06-01T05:32:08.416Z,99.90
2019-06-01T05:34:39.229Z,99.90
2019-06-01T05:37:10.794Z,99.90
2019-06-01T05:39:41.829Z,99.90
2019-06-01T05:42:12.575Z,99.90
2019-06-01T05:44:43.437Z,99.90
2019-06-01T05:47:16.256Z,99.90
2019-06-01T05:49:47.308Z,99.90
2019-06-01T05:52:18.833Z,99.90
2019-06-01T05:54:49.511Z,99.90
2019-06-01T05:57:20.227Z,99.90
2019-06-01T05:59:50.848Z,99.90
2019-06-01T06:02:21.617Z,99.90
2019-06-01T06:04:54.198Z,99.90
2019-06-01T06:07:26.036Z,99.90
2019-06-01T06:09:56.607Z,99.90
2019-06-01T06:12:27.365Z,99.90
2019-06-01T06:14:58.128Z,99.90
2019-06-01T06:17:28.874Z,99.90
2019-06-01T06:19:59.731Z,99.90
2019-06-01T06:22:31.613Z,99.90
2019-06-01T06:25:02.444Z,99.90
2019-06-01T06:27:33.065Z,99.90
2019-06-01T06:30:07.676Z,99.90
2019-06-01T06:32:38.183Z,99.90
2019-06-01T06:35:08.919Z,99.90
2019-06-01T06:37:42.332Z,99.90
2019-06-01T06:40:13.791Z,99.90
2019-06-01T06:42:44.487Z,99.90
2019-06-01T06:45:16.568Z,99.90
2019-06-01T06:47:47.412Z,93.50
2019-06-01T06:50:19.292Z,99.00
2019-06-01T06:52:49.973Z,96.00
2019-06-01T06:55:20.597Z,99.90
2019-06-01T06:57:51.215Z,98.90
2019-06-01T07:00:22.678Z,95.90
2019-06-01T07:02:53.317Z,97.30
2019-06-01T07:05:25.526Z,92.00
2019-06-01T07:07:57.277Z,88.50
2019-06-01T07:10:28.347Z,93.90
2019-06-01T07:12:59.374Z,94.60
2019-06-01T07:15:30.317Z,96.50
2019-06-01T07:18:01.403Z,99.80
2019-06-01T07:20:34.903Z,94.00
2019-06-01T07:23:05.841Z,94.80
2019-06-01T07:25:36.515Z,94.80
2019-06-01T07:28:07.453Z,98.40
2019-06-01T07:30:49.723Z,93.00
2019-06-01T07:33:11.425Z,97.30
2019-06-01T07:35:43.084Z,93.40
2019-06-01T07:38:14.519Z,98.40
2019-06-01T07:40:45.639Z,93.00
2019-06-01T07:43:16.679Z,93.40
2019-06-01T07:45:47.729Z,95.90
2019-06-01T07:48:18.304Z,96.30
2019-06-01T07:50:49.014Z,94.60
2019-06-01T07:53:20.762Z,84.40
2019-06-01T07:55:51.830Z,91.60
2019-06-01T07:58:24.644Z,91.30
2019-06-01T08:00:55.588Z,87.50
2019-06-01T08:03:30.665Z,92.60
2019-06-01T08:05:58.884Z,89.50
2019-06-01T08:08:29.895Z,88.40
2019-06-01T08:11:00.631Z,83.90
2019-06-01T08:13:33.948Z,90.40
2019-06-01T08:16:03.662Z,85.80
2019-06-01T08:18:34.406Z,85.80
2019-06-01T08:21:05.173Z,76.40
2019-06-01T08:23:35.693Z,78.40
2019-06-01T08:26:06.567Z,78.40
2019-06-01T08:28:37.483Z,79.80
2019-06-01T08:31:08.206Z,80.30
2019-06-01T08:33:39.148Z,80.80
2019-06-01T08:36:10.845Z,77.50
2019-06-01T08:38:41.753Z,82.50
2019-06-01T08:41:12.505Z,86.00
2019-06-01T08:43:43.525Z,85.60
2019-06-01T08:46:14.341Z,84.50
2019-06-01T08:48:45.022Z,89.60
2019-06-01T08:51:15.545Z,85.60
2019-06-01T08:53:46.503Z,83.20
2019-06-01T08:56:17.220Z,84.90
2019-06-01T08:58:48.342Z,77.40
2019-06-01T09:01:18.861Z,88.40
2019-06-01T09:03:49.568Z,86.00
2019-06-01T09:06:20.577Z,91.80
2019-06-01T09:08:51.226Z,95.90
2019-06-01T09:11:21.954Z,92.30
2019-06-01T09:13:52.556Z,91.60
2019-06-01T09:16:23.511Z,87.80
2019-06-01T09:18:54.594Z,90.20
2019-06-01T09:21:27.418Z,80.90
2019-06-01T09:23:59.238Z,90.80
2019-06-01T09:26:29.856Z,80.20
2019-06-01T09:29:00.857Z,85.00
2019-06-01T09:31:32.423Z,90.00
2019-06-01T09:34:03.291Z,90.80
2019-06-01T09:36:34.518Z,79.60
2019-06-01T09:39:07.663Z,91.00
2019-06-01T09:41:38.233Z,81.30
2019-06-01T09:44:08.819Z,81.50
2019-06-01T09:46:39.411Z,80.40
2019-06-01T09:49:10.355Z,85.90
2019-06-01T09:51:42.157Z,88.50
2019-06-01T09:54:13.808Z,81.70
2019-06-01T09:56:46.906Z,86.20
2019-06-01T09:59:17.813Z,83.90
2019-06-01T10:01:48.660Z,87.90
2019-06-01T10:04:19.299Z,90.80
2019-06-01T10:06:50.120Z,88.40
2019-06-01T10:09:21.390Z,87.90
2019-06-01T10:11:52.353Z,90.10
2019-06-01T10:14:23.132Z,90.50
2019-06-01T10:16:53.731Z,85.80
2019-06-01T10:19:24.516Z,90.80
2019-06-01T10:21:55.315Z,91.60
2019-06-01T10:24:25.919Z,93.40
2019-06-01T10:26:56.454Z,91.50
2019-06-01T10:29:27.122Z,93.00
2019-06-01T10:31:57.741Z,99.60
2019-06-01T10:34:28.495Z,94.30
2019-06-01T10:36:59.043Z,94.40
2019-06-01T10:39:31.138Z,90.70
2019-06-01T10:42:01.961Z,92.00
2019-06-01T10:44:39.835Z,94.40
2019-06-01T10:47:06.954Z,94.90
2019-06-01T10:49:38.118Z,96.20
2019-06-01T10:52:09.180Z,92.70
2019-06-01T10:54:40.243Z,93.30
2019-06-01T10:57:11.512Z,92.00
2019-06-01T10:59:42.701Z,91.30
2019-06-01T11:02:13.701Z,92.30
2019-06-01T11:04:44.643Z,92.10
2019-06-01T11:07:15.883Z,90.50
2019-06-01T11:09:46.472Z,90.50
2019-06-01T11:12:17.682Z,90.40
2019-06-01T11:14:48.534Z,87.60
2019-06-01T11:17:19.089Z,91.00
2019-06-01T11:19:49.764Z,86.40
2019-06-01T11:22:20.377Z,88.50
2019-06-01T11:24:51.298Z,82.10
2019-06-01T11:27:22.014Z,77.00
2019-06-01T11:29:53.355Z,77.30
2019-06-01T11:32:24.089Z,72.30
2019-06-01T11:34:55.090Z,70.20
2019-06-01T11:37:26.176Z,65.50
2019-06-01T11:39:57.344Z,61.00
2019-06-01T11:42:28.102Z,60.20
2019-06-01T11:44:58.674Z,61.10
2019-06-01T11:47:29.534Z,62.90
2019-06-01T11:50:00.529Z,60.00
2019-06-01T11:52:31.428Z,64.50
2019-06-01T11:55:02.424Z,68.40
2019-06-01T11:57:33.029Z,69.20
2019-06-01T12:00:05.597Z,64.00
2019-06-01T12:02:37.492Z,66.70
2019-06-01T12:05:11.017Z,61.70
2019-06-01T12:07:42.018Z,62.10
2019-06-01T12:10:15.256Z,61.70
2019-06-01T12:12:57.903Z,64.20
2019-06-01T12:15:29.556Z,63.10
2019-06-01T12:18:00.538Z,59.60
2019-06-01T12:20:31.289Z,67.00
2019-06-01T12:23:02.067Z,60.10
2019-06-01T12:25:32.651Z,68.10
2019-06-01T12:28:03.525Z,65.90
2019-06-01T12:30:34.075Z,64.20
2019-06-01T12:33:04.935Z,63.30
2019-06-01T12:35:35.518Z,64.70
2019-06-01T12:38:09.649Z,63.50
2019-06-01T12:40:41.115Z,62.40
2019-06-01T12:43:12.202Z,63.50
2019-06-01T12:45:43.735Z,58.00
2019-06-01T12:48:14.773Z,61.90
2019-06-01T12:50:48.288Z,59.40
2019-06-01T12:53:18.035Z,61.20
2019-06-01T12:55:48.907Z,61.00
2019-06-01T12:58:23.546Z,59.60
2019-06-01T13:00:54.416Z,62.20
2019-06-01T13:03:25.116Z,59.90
2019-06-01T13:05:56.117Z,60.70
2019-06-01T13:08:27.230Z,63.70
2019-06-01T13:10:58.051Z,65.00
2019-06-01T13:13:29.295Z,69.50
2019-06-01T13:16:00.034Z,72.20
2019-06-01T13:18:30.929Z,64.80
2019-06-01T13:21:01.564Z,68.20
2019-06-01T13:23:32.455Z,71.00
2019-06-01T13:26:03.524Z,70.90
2019-06-01T13:28:38.146Z,64.20
2019-06-01T13:31:06.801Z,65.40
2019-06-01T13:33:37.518Z,67.20
2019-06-01T13:36:08.512Z,70.30
2019-06-01T13:38:39.655Z,69.60
2019-06-01T13:41:10.474Z,77.30
2019-06-01T13:43:43.700Z,72.10
2019-06-01T13:46:14.787Z,74.30
2019-06-01T13:48:45.634Z,73.90
2019-06-01T13:51:16.516Z,74.70
2019-06-01T13:53:48.482Z,73.10
2019-06-01T13:56:19.287Z,73.10
2019-06-01T13:58:52.383Z,74.30
2019-06-01T14:01:24.629Z,73.10
2019-06-01T14:03:55.763Z,74.20
2019-06-01T14:06:26.548Z,69.40
2019-06-01T14:08:57.224Z,71.30
2019-06-01T14:11:27.925Z,70.80
2019-06-01T14:13:58.555Z,73.10
2019-06-01T14:16:29.442Z,68.90
2019-06-01T14:19:00.745Z,65.50
2019-06-01T14:21:31.510Z,63.50
2019-06-01T14:24:02.221Z,65.20
2019-06-01T14:26:33.997Z,65.90
2019-06-01T14:29:04.940Z,68.10
2019-06-01T14:31:35.878Z,70.40
2019-06-01T14:34:06.585Z,66.60
2019-06-01T14:36:37.418Z,66.30
2019-06-01T14:39:08.969Z,65.30
2019-06-01T14:41:40.396Z,61.50
2019-06-01T14:44:11.112Z,59.90
2019-06-01T14:46:53.775Z,63.60
2019-06-01T14:49:14.509Z,62.60
2019-06-01T14:51:45.247Z,58.70
2019-06-01T14:54:16.733Z,62.00
2019-06-01T14:56:49.615Z,65.30
2019-06-01T14:59:22.850Z,63.80
2019-06-01T15:01:54.347Z,65.00
2019-06-01T15:04:25.293Z,65.50
2019-06-01T15:06:56.470Z,71.00
2019-06-01T15:09:28.884Z,65.40
2019-06-01T15:11:59.560Z,57.70
2019-06-01T15:14:30.401Z,65.40
2019-06-01T15:17:02.313Z,62.60
2019-06-01T15:19:33.046Z,59.80
2019-06-01T15:22:04.125Z,62.00
2019-06-01T15:24:34.953Z,65.00
2019-06-01T15:27:05.651Z,68.20
2019-06-01T15:29:36.967Z,65.50
2019-06-01T15:32:07.676Z,70.30
2019-06-01T15:34:38.657Z,65.00
2019-06-01T15:37:10.072Z,68.30
2019-06-01T15:39:40.906Z,68.00
2019-06-01T15:42:12.091Z,69.50
2019-06-01T15:44:42.748Z,71.90
2019-06-01T15:47:14.204Z,68.50
2019-06-01T15:49:44.951Z,67.40
2019-06-01T15:52:15.562Z,70.10
2019-06-01T15:54:46.917Z,68.10
2019-06-01T15:57:17.565Z,68.00
2019-06-01T15:59:48.280Z,71.40
2019-06-01T16:02:19.094Z,67.70
2019-06-01T16:04:50.869Z,75.60
2019-06-01T16:07:21.908Z,69.20
2019-06-01T16:09:53.142Z,70.50
2019-06-01T16:12:24.073Z,68.80
2019-06-01T16:14:55.453Z,67.70
2019-06-01T16:17:26.809Z,69.30
2019-06-01T16:19:57.911Z,69.00
2019-06-01T16:22:30.411Z,69.00
2019-06-01T16:25:02.460Z,69.10
2019-06-01T16:27:33.490Z,71.20
2019-06-01T16:30:06.520Z,69.00
2019-06-01T16:32:39.581Z,69.60
2019-06-01T16:35:09.643Z,70.50
2019-06-01T16:37:40.762Z,70.20
2019-06-01T16:40:12.321Z,73.10
2019-06-01T16:42:43.080Z,72.40
2019-06-01T16:45:13.867Z,70.80
2019-06-01T16:47:45.022Z,71.70
2019-06-01T16:50:16.789Z,74.20
2019-06-01T16:52:47.576Z,69.60
2019-06-01T16:55:19.701Z,69.40
2019-06-01T16:57:50.437Z,72.20
2019-06-01T17:00:21.159Z,69.80
2019-06-01T17:02:51.961Z,71.50
2019-06-01T17:05:23.243Z,75.70
2019-06-01T17:07:54.058Z,71.00
2019-06-01T17:10:26.695Z,70.10
2019-06-01T17:12:56.885Z,69.10
2019-06-01T17:15:27.814Z,70.50
2019-06-01T17:18:02.984Z,70.60
2019-06-01T17:20:44.714Z,69.50
2019-06-01T17:23:33.089Z,68.90
2019-06-01T17:25:48.288Z,68.40
2019-06-01T17:28:19.128Z,70.20
2019-06-01T17:30:50.202Z,70.10
2019-06-01T17:33:21.108Z,70.50
2019-06-01T17:35:51.697Z,70.70
2019-06-01T17:38:22.435Z,69.20
2019-06-01T17:40:54.330Z,70.30
2019-06-01T17:43:24.977Z,74.80
2019-06-01T17:45:56.268Z,72.00
2019-06-01T17:48:27.408Z,72.10
2019-06-01T17:50:58.303Z,72.60
2019-06-01T17:53:30.150Z,72.10
2019-06-01T17:56:01.925Z,74.20
2019-06-01T17:58:32.986Z,73.10
2019-06-01T18:01:04.224Z,72.50
2019-06-01T18:03:35.452Z,76.40
2019-06-01T18:06:07.778Z,71.10
2019-06-01T18:08:38.834Z,72.80
2019-06-01T18:11:10.102Z,71.40
2019-06-01T18:13:40.969Z,73.30
2019-06-01T18:16:13.263Z,72.80
2019-06-01T18:18:44.052Z,74.50
2019-06-01T18:21:14.855Z,76.50
2019-06-01T18:23:48.913Z,77.70
2019-06-01T18:26:19.379Z,79.50
2019-06-01T18:28:50.161Z,77.70
2019-06-01T18:31:21.076Z,78.80
2019-06-01T18:33:53.507Z,80.30
2019-06-01T18:36:23.800Z,82.30
2019-06-01T18:38:54.709Z,84.30
2019-06-01T18:41:25.462Z,84.40
2019-06-01T18:43:56.292Z,84.80
2019-06-01T18:46:26.945Z,84.00
2019-06-01T18:48:57.819Z,80.90
2019-06-01T18:51:29.614Z,86.10
2019-06-01T18:54:00.217Z,86.20
2019-06-01T18:56:32.855Z,87.00
2019-06-01T18:59:06.400Z,88.00
2019-06-01T19:01:37.082Z,88.40
2019-06-01T19:04:07.943Z,87.70
2019-06-01T19:06:39.304Z,87.80
2019-06-01T19:09:11.322Z,89.20
2019-06-01T19:11:42.789Z,89.90
2019-06-01T19:14:14.026Z,90.40
2019-06-01T19:16:45.306Z,90.80
2019-06-01T19:19:16.757Z,91.30
2019-06-01T19:21:47.894Z,91.90
2019-06-01T19:24:19.311Z,92.00
2019-06-01T19:26:50.861Z,92.40
2019-06-01T19:29:22.709Z,93.30
2019-06-01T19:31:54.115Z,93.00
2019-06-01T19:34:25.656Z,92.50
2019-06-01T19:36:57.152Z,93.90
2019-06-01T19:39:28.604Z,93.70
2019-06-01T19:42:00.805Z,94.10
2019-06-01T19:44:32.152Z,94.80
2019-06-01T19:47:03.623Z,94.80
2019-06-01T19:49:35.025Z,95.50
2019-06-01T19:52:08.580Z,95.80
2019-06-01T19:54:39.815Z,96.10
2019-06-01T19:57:11.752Z,96.60
2019-06-01T19:59:43.238Z,96.80
2019-06-01T20:02:29.319Z,97.20
2019-06-01T20:04:47.662Z,97.40
2019-06-01T20:07:19.290Z,97.40
2019-06-01T20:09:51.594Z,97.40
2019-06-01T20:12:26.294Z,97.50
2019-06-01T20:14:57.405Z,97.40
2019-06-01T20:17:28.893Z,97.60
2019-06-01T20:20:00.575Z,97.70
2019-06-01T20:22:33.428Z,97.70
2019-06-01T20:25:05.185Z,97.40
2019-06-01T20:27:36.954Z,97.30
2019-06-01T20:30:09.253Z,97.40
2019-06-01T20:32:41.362Z,96.90
2019-06-01T20:35:13.854Z,96.30
2019-06-01T20:37:45.078Z,96.40
2019-06-01T20:40:18.299Z,96.70
2019-06-01T20:42:51.552Z,96.80
2019-06-01T20:45:25.354Z,96.90
2019-06-01T20:47:57.043Z,97.10
2019-06-01T20:50:28.154Z,97.40
2019-06-01T20:52:59.166Z,97.60
2019-06-01T20:55:30.787Z,97.40
2019-06-01T20:58:06.025Z,97.60
2019-06-01T21:00:37.875Z,98.00
2019-06-01T21:03:10.078Z,97.90
2019-06-01T21:05:41.990Z,98.20
2019-06-01T21:08:14.020Z,98.20
2019-06-01T21:10:45.568Z,98.00
2019-06-01T21:13:18.117Z,97.40
2019-06-01T21:15:49.280Z,98.30
2019-06-01T21:18:20.975Z,97.70
2019-06-01T21:20:52.119Z,97.50
2019-06-01T21:23:23.129Z,98.00
2019-06-01T21:25:54.133Z,97.60
2019-06-01T21:28:25.704Z,97.40
2019-06-01T21:30:57.189Z,97.20
2019-06-01T21:33:28.842Z,97.60
2019-06-01T21:35:59.927Z,97.00
2019-06-01T21:38:30.755Z,97.90
2019-06-01T21:41:01.593Z,98.00
2019-06-01T21:43:35.432Z,97.60
2019-06-01T21:46:05.326Z,98.00
2019-06-01T21:48:36.651Z,98.70
2019-06-01T21:51:07.481Z,98.90
2019-06-01T21:53:38.963Z,99.20
2019-06-01T21:56:09.953Z,99.50
2019-06-01T21:58:40.637Z,98.80
2019-06-01T22:01:12.005Z,99.10
2019-06-01T22:03:43.089Z,99.40
2019-06-01T22:06:14.113Z,99.60
2019-06-01T22:08:52.235Z,99.50
2019-06-01T22:11:19.351Z,99.90
2019-06-01T22:13:50.382Z,99.90
2019-06-01T22:16:21.671Z,99.90
2019-06-01T22:18:52.860Z,99.90
2019-06-01T22:21:23.893Z,99.90
2019-06-01T22:23:56.309Z,99.90
2019-06-01T22:26:28.336Z,99.90
2019-06-01T22:28:59.385Z,99.90
2019-06-01T22:31:30.617Z,99.90
2019-06-01T22:34:01.447Z,99.90
2019-06-01T22:36:32.902Z,99.90
2019-06-01T22:39:04.957Z,99.90
2019-06-01T22:41:37.244Z,99.90
2019-06-01T22:44:08.553Z,99.90
2019-06-01T22:46:39.293Z,99.90
2019-06-01T22:49:10.220Z,99.90
2019-06-01T22:51:42.263Z,99.90
2019-06-01T22:54:13.053Z,99.90
2019-06-01T22:56:43.615Z,99.90
2019-06-01T22:59:14.854Z,99.90
2019-06-01T23:01:45.463Z,99.90
2019-06-01T23:04:16.710Z,99.90
2019-06-01T23:06:47.807Z,99.90
2019-06-01T23:09:18.697Z,99.90
2019-06-01T23:11:49.800Z,99.90
2019-06-01T23:14:21.313Z,99.90
2019-06-01T23:16:52.224Z,99.90
2019-06-01T23:19:23.772Z,99.90
2019-06-01T23:21:54.625Z,99.90
2019-06-01T23:24:26.105Z,99.90
2019-06-01T23:26:57.335Z,99.90
2019-06-01T23:29:28.210Z,99.90
2019-06-01T23:31:59.030Z,99.90
2019-06-01T23:34:30.678Z,99.90
2019-06-01T23:37:01.551Z,99.90
2019-06-01T23:39:32.984Z,99.90
2019-06-01T23:42:03.684Z,99.90
2019-06-01T23:44:35.152Z,99.90
2019-06-01T23:47:06.198Z,99.90
2019-06-01T23:49:36.887Z,99.90
2019-06-01T23:52:07.706Z,99.90
2019-06-01T23:54:38.318Z,99.90
2019-06-01T23:57:09.121Z,99.90
2019-06-01T23:59:39.985Z,99.90
